首页
METAR-TAF:

METAR-TAF

机场 :

克拉科夫, 波兰

纬度: 50-05N, 经度: 019-48E, 海拔: 237米

当前天气观测

该预报发布于34分钟前的08:30 UTC
风速8节,风向西南,在南转西南西之间变化
温度 30°C
湿度 52%
气压 1024 hPa
能见度10公里或以上
1500米以下无云,无积雨云

METAR: EPKK 260830Z 23008KT 210V270 CAVOK 30/19 Q1024

时间: 11:04 (09:04 UTC)

预报

该预报发布于34分钟前的08:30 UTC
预报有效从26日的 09点(UTC)到 27日的 09点(UTC)
风速10节,风向西转西南
能见度10公里或以上
1500米以下无云,无积雨云
几率 30% :
短暂存在
从 27日的 03点(UTC)到 27日的 09点(UTC)
多云层高于4000英尺, 积雨云.
小阵雨

TAF: EPKK 260830Z 2609/2709 25010KT CAVOK PROB30 TEMPO 2703/2709 -SHRA BKN040CB

超过4000个机场的气象观测和天气预报(METAR&TAF报告)。

可查询的气象台以黄色和红色小点在地图上表示。

将鼠标移到小点上方,可查看气象台名称。

然后点击查看天气观测和预报。

如需切换地图:点击带黑十字的绿色按钮放大地图;点击带横线的绿色按钮缩小地图;或者点击绿色箭头查看邻近地区的地图。


METAR-TAF: